Time;durP1;ratioP1;P1;durP2;ratioP2;P2;SDS_P1;SDS_P2;PMS_P1;PMS_P2;Temp;Humidity;BMP_temperature;BMP_pressure;BME280_temperature;BME280_humidity;BME280_pressure;Samples;Min_cycle;Max_cycle;Signal;HPM_P1;HPM_P2
2023/09/04 00:00:02;;;;;;;6.85;5.82;;;;;;;;;;4998369;28;20416;-60
2023/09/04 00:02:29;;;;;;;7.72;5.63;;;;;;;;;;4987472;28;20936;-60
2023/09/04 00:04:56;;;;;;;6.90;5.78;;;;;;;;;;4997306;28;20424;-62
2023/09/04 00:07:23;;;;;;;8.48;5.85;;;;;;;;;;4986547;28;20765;-61
2023/09/04 00:09:51;;;;;;;7.57;5.85;;;;;;;;;;4995075;28;20436;-61
2023/09/04 00:12:18;;;;;;;7.82;6.03;;;;;;;;;;4988231;28;20468;-61
2023/09/04 00:14:45;;;;;;;6.78;6.00;;;;;;;;;;4987346;28;20424;-61
2023/09/04 00:17:13;;;;;;;7.70;5.65;;;;;;;;;;4985350;28;20418;-60
2023/09/04 00:19:40;;;;;;;8.15;5.50;;;;;;;;;;4991782;28;20420;-60
2023/09/04 00:22:07;;;;;;;7.50;6.65;;;;;;;;;;4991872;28;20772;-62
2023/09/04 00:24:34;;;;;;;8.20;6.53;;;;;;;;;;4994332;28;20437;-59
2023/09/04 00:27:01;;;;;;;9.20;6.63;;;;;;;;;;4989854;28;20426;-62
2023/09/04 00:29:28;;;;;;;9.75;7.28;;;;;;;;;;4994972;28;20480;-62
2023/09/04 00:31:55;;;;;;;8.20;6.90;;;;;;;;;;4987321;28;20435;-60
2023/09/04 00:34:24;;;;;;;7.70;6.90;;;;;;;;;;4995373;28;20789;-61
2023/09/04 00:36:51;;;;;;;8.23;6.63;;;;;;;;;;4987934;28;20883;-61
2023/09/04 00:39:18;;;;;;;8.05;7.20;;;;;;;;;;4995598;28;20418;-59
2023/09/04 00:41:45;;;;;;;8.55;6.70;;;;;;;;;;4983149;28;20424;-59
2023/09/04 00:44:12;;;;;;;8.35;7.00;;;;;;;;;;4996859;28;20441;-59
2023/09/04 00:46:39;;;;;;;10.05;7.53;;;;;;;;;;4984757;28;20877;-61
2023/09/04 00:49:06;;;;;;;9.20;7.75;;;;;;;;;;4992032;28;20412;-61
2023/09/04 00:51:35;;;;;;;9.97;7.40;;;;;;;;;;4989942;28;20495;-60
2023/09/04 00:54:03;;;;;;;11.88;7.60;;;;;;;;;;4993308;28;20412;-60
2023/09/04 00:56:30;;;;;;;10.10;7.72;;;;;;;;;;4989305;28;20481;-61
2023/09/04 00:58:57;;;;;;;11.00;8.02;;;;;;;;;;4992170;28;20415;-60
2023/09/04 01:01:24;;;;;;;11.30;8.60;;;;;;;;;;4986260;28;20439;-61
2023/09/04 01:03:51;;;;;;;11.70;8.80;;;;;;;;;;4987097;28;20802;-61
2023/09/04 01:06:18;;;;;;;10.63;8.10;;;;;;;;;;4981547;28;20439;-61
2023/09/04 01:08:47;;;;;;;11.55;9.15;;;;;;;;;;4983335;28;20418;-61
2023/09/04 01:11:17;;;;;;;12.68;10.05;;;;;;;;;;4994043;28;20458;-61
2023/09/04 01:13:46;;;;;;;13.10;9.55;;;;;;;;;;4987373;28;20426;-61
2023/09/04 01:16:13;;;;;;;13.27;8.97;;;;;;;;;;4987351;28;20418;-61
2023/09/04 01:18:41;;;;;;;9.67;8.20;;;;;;;;;;4986823;28;20422;-61
2023/09/04 01:21:09;;;;;;;12.32;8.52;;;;;;;;;;4993082;28;20960;-61
2023/09/04 01:23:36;;;;;;;9.35;8.20;;;;;;;;;;4988129;28;20478;-61
2023/09/04 01:26:13;;;;;;;13.35;9.02;;;;;;;;;;4992135;28;20427;-59
2023/09/04 01:28:42;;;;;;;11.60;8.85;;;;;;;;;;4986581;28;20929;-61
2023/09/04 01:31:14;;;;;;;11.10;8.80;;;;;;;;;;4992052;28;20542;-61
2023/09/04 01:33:42;;;;;;;13.90;8.70;;;;;;;;;;4985845;28;20958;-62
2023/09/04 01:36:13;;;;;;;13.00;8.98;;;;;;;;;;4991714;28;20461;-61
2023/09/04 01:38:41;;;;;;;11.82;8.57;;;;;;;;;;4985368;28;20466;-61
2023/09/04 01:41:08;;;;;;;11.55;9.32;;;;;;;;;;4996853;28;20436;-62
2023/09/04 01:43:35;;;;;;;14.50;9.47;;;;;;;;;;4985416;28;20434;-61
2023/09/04 01:46:02;;;;;;;14.27;9.25;;;;;;;;;;4984012;28;21239;-62
2023/09/04 01:48:29;;;;;;;12.03;9.97;;;;;;;;;;4984240;28;20425;-62
2023/09/04 01:50:56;;;;;;;12.15;9.32;;;;;;;;;;4994197;28;20424;-61
2023/09/04 01:53:24;;;;;;;13.13;9.98;;;;;;;;;;4988215;28;20793;-61
2023/09/04 01:55:51;;;;;;;12.43;9.55;;;;;;;;;;4992300;28;20466;-61
2023/09/04 01:58:18;;;;;;;11.30;9.75;;;;;;;;;;4985765;28;20903;-61
2023/09/04 02:00:47;;;;;;;11.45;10.15;;;;;;;;;;4990090;28;20418;-61
2023/09/04 02:03:14;;;;;;;14.13;9.90;;;;;;;;;;4987848;28;20559;-61
2023/09/04 02:05:42;;;;;;;14.57;9.98;;;;;;;;;;4991950;28;20422;-61
2023/09/04 02:08:09;;;;;;;13.90;9.60;;;;;;;;;;4989047;28;20812;-61
2023/09/04 02:10:38;;;;;;;12.80;9.88;;;;;;;;;;4991704;28;20935;-61
2023/09/04 02:13:05;;;;;;;15.60;10.68;;;;;;;;;;4987649;28;20467;-61
2023/09/04 02:15:32;;;;;;;12.60;9.90;;;;;;;;;;4987835;28;20801;-61
2023/09/04 02:18:01;;;;;;;13.05;10.30;;;;;;;;;;4984491;28;20872;-61
2023/09/04 02:20:29;;;;;;;12.48;10.65;;;;;;;;;;4991811;28;20530;-61
2023/09/04 02:22:56;;;;;;;13.10;10.25;;;;;;;;;;4983887;28;20416;-61
2023/09/04 02:25:23;;;;;;;12.23;10.23;;;;;;;;;;4992827;28;20813;-62
2023/09/04 02:27:51;;;;;;;14.43;11.98;;;;;;;;;;4988158;28;20977;-61
2023/09/04 02:30:18;;;;;;;14.82;11.73;;;;;;;;;;4992358;28;20463;-61
2023/09/04 02:32:45;;;;;;;13.48;10.30;;;;;;;;;;4987368;28;20816;-61
2023/09/04 02:35:12;;;;;;;13.02;10.30;;;;;;;;;;4987041;28;20545;-61
2023/09/04 02:37:39;;;;;;;11.63;9.80;;;;;;;;;;4987750;28;20429;-61
2023/09/04 02:40:07;;;;;;;14.70;10.38;;;;;;;;;;4990189;28;20922;-61
2023/09/04 02:42:34;;;;;;;12.77;10.45;;;;;;;;;;4987212;28;20467;-62
2023/09/04 02:45:03;;;;;;;13.73;10.50;;;;;;;;;;4987271;28;20436;-61
2023/09/04 02:47:30;;;;;;;14.70;11.40;;;;;;;;;;4986750;28;20463;-61
2023/09/04 02:49:57;;;;;;;15.02;12.50;;;;;;;;;;4988843;28;20424;-61
2023/09/04 02:52:24;;;;;;;16.23;11.37;;;;;;;;;;4992626;28;20775;-61
2023/09/04 02:54:51;;;;;;;14.95;11.75;;;;;;;;;;4987847;28;20470;-61
2023/09/04 02:57:18;;;;;;;14.13;11.50;;;;;;;;;;4992303;28;20412;-62
2023/09/04 02:59:45;;;;;;;15.85;12.40;;;;;;;;;;4986883;28;20416;-62
2023/09/04 03:02:13;;;;;;;13.85;11.75;;;;;;;;;;4991884;28;20424;-62
2023/09/04 03:04:40;;;;;;;16.20;11.90;;;;;;;;;;4988049;28;20482;-62
2023/09/04 03:07:08;;;;;;;15.57;11.75;;;;;;;;;;4986180;28;20479;-62
2023/09/04 03:09:35;;;;;;;14.45;11.40;;;;;;;;;;4985140;28;20422;-63
2023/09/04 03:12:02;;;;;;;13.88;11.30;;;;;;;;;;4989119;28;20419;-61
2023/09/04 03:14:29;;;;;;;13.57;11.45;;;;;;;;;;4981926;28;20410;-61
2023/09/04 03:16:56;;;;;;;16.73;11.98;;;;;;;;;;4983972;28;20434;-62
2023/09/04 03:19:24;;;;;;;16.48;13.85;;;;;;;;;;4987701;28;20893;-62
2023/09/04 03:21:51;;;;;;;17.90;12.80;;;;;;;;;;4991885;28;20426;-62
2023/09/04 03:24:20;;;;;;;18.13;12.55;;;;;;;;;;4988095;28;20434;-62
2023/09/04 03:26:47;;;;;;;18.08;12.02;;;;;;;;;;4990622;28;20849;-63
2023/09/04 03:29:14;;;;;;;15.30;11.85;;;;;;;;;;4984115;28;20896;-63
2023/09/04 03:31:41;;;;;;;19.58;13.60;;;;;;;;;;4995220;28;20430;-63
2023/09/04 03:34:08;;;;;;;17.45;13.02;;;;;;;;;;4986611;28;20447;-62
2023/09/04 03:36:36;;;;;;;14.05;12.55;;;;;;;;;;4990625;28;20418;-61
2023/09/04 03:39:06;;;;;;;15.93;12.10;;;;;;;;;;4985139;28;20466;-62
2023/09/04 03:41:33;;;;;;;17.93;11.97;;;;;;;;;;4984302;28;20428;-62
2023/09/04 03:44:00;;;;;;;17.35;11.93;;;;;;;;;;4982489;28;20446;-62
2023/09/04 03:46:27;;;;;;;12.80;11.35;;;;;;;;;;4987824;28;20440;-62
2023/09/04 03:48:54;;;;;;;16.75;10.80;;;;;;;;;;4983672;28;20416;-62
2023/09/04 03:51:22;;;;;;;13.95;11.13;;;;;;;;;;4995710;28;20420;-62
2023/09/04 03:53:50;;;;;;;13.07;10.48;;;;;;;;;;4986092;28;20412;-61
2023/09/04 03:56:17;;;;;;;14.55;10.95;;;;;;;;;;4992334;28;20465;-62
2023/09/04 03:58:44;;;;;;;13.43;10.38;;;;;;;;;;4987523;28;20423;-62
2023/09/04 04:01:11;;;;;;;14.95;10.32;;;;;;;;;;4996870;28;20413;-62
2023/09/04 04:03:38;;;;;;;12.60;10.60;;;;;;;;;;4985684;28;20424;-63
2023/09/04 04:06:09;;;;;;;13.30;10.43;;;;;;;;;;4996006;28;20908;-61
2023/09/04 04:08:36;;;;;;;11.07;9.80;;;;;;;;;;4991298;28;20445;-62
2023/09/04 04:11:05;;;;;;;13.85;10.82;;;;;;;;;;4994829;28;20475;-62
2023/09/04 04:13:32;;;;;;;14.17;10.60;;;;;;;;;;4990901;28;20501;-62
2023/09/04 04:15:59;;;;;;;12.10;10.50;;;;;;;;;;4988560;28;20432;-62
2023/09/04 04:18:27;;;;;;;13.43;10.65;;;;;;;;;;4990379;28;20423;-62
2023/09/04 04:20:54;;;;;;;14.35;10.30;;;;;;;;;;4992744;28;20423;-62
2023/09/04 04:23:21;;;;;;;14.73;9.67;;;;;;;;;;4989802;28;20460;-62
2023/09/04 04:25:49;;;;;;;12.10;9.15;;;;;;;;;;4991773;28;20449;-62
2023/09/04 04:28:18;;;;;;;11.23;9.55;;;;;;;;;;4988384;28;20409;-62
2023/09/04 04:30:45;;;;;;;11.88;9.90;;;;;;;;;;4991228;28;20418;-62
2023/09/04 04:33:13;;;;;;;12.40;9.90;;;;;;;;;;4988957;28;20420;-62
2023/09/04 04:35:40;;;;;;;13.70;10.82;;;;;;;;;;4991186;28;20417;-62
2023/09/04 04:38:07;;;;;;;14.48;10.90;;;;;;;;;;4993516;28;20416;-63
2023/09/04 04:40:34;;;;;;;16.35;11.73;;;;;;;;;;4991525;28;20422;-62
2023/09/04 04:43:03;;;;;;;15.13;11.20;;;;;;;;;;4991531;28;20414;-62
2023/09/04 04:45:32;;;;;;;15.40;11.50;;;;;;;;;;4989134;28;20805;-62
2023/09/04 04:47:59;;;;;;;12.80;10.35;;;;;;;;;;4989971;28;20414;-62
2023/09/04 04:50:26;;;;;;;12.25;9.77;;;;;;;;;;4991848;28;20418;-62
2023/09/04 04:52:53;;;;;;;11.25;10.05;;;;;;;;;;4991609;28;20418;-62
2023/09/04 04:55:20;;;;;;;14.57;9.82;;;;;;;;;;4992340;28;20418;-62
2023/09/04 04:57:47;;;;;;;13.40;9.57;;;;;;;;;;4987653;28;20430;-62
2023/09/04 05:00:14;;;;;;;13.65;10.05;;;;;;;;;;4991153;28;20781;-63
2023/09/04 05:02:42;;;;;;;14.07;10.80;;;;;;;;;;4993303;28;20415;-62
2023/09/04 05:05:10;;;;;;;12.53;11.07;;;;;;;;;;4989842;28;20432;-62
2023/09/04 05:07:37;;;;;;;13.07;10.20;;;;;;;;;;4994081;28;20480;-62
2023/09/04 05:10:05;;;;;;;10.93;9.37;;;;;;;;;;4988361;28;20921;-62
2023/09/04 05:12:32;;;;;;;11.80;9.65;;;;;;;;;;4993056;28;20489;-62
2023/09/04 05:14:59;;;;;;;17.27;11.30;;;;;;;;;;4986506;28;20413;-62
2023/09/04 05:17:26;;;;;;;11.20;9.90;;;;;;;;;;4989651;28;20796;-62
2023/09/04 05:19:54;;;;;;;12.85;9.98;;;;;;;;;;4986236;28;20420;-62
2023/09/04 05:22:22;;;;;;;13.60;10.15;;;;;;;;;;4992923;28;20425;-62
2023/09/04 05:24:49;;;;;;;15.20;11.02;;;;;;;;;;4985952;28;20440;-62
2023/09/04 05:27:16;;;;;;;13.10;10.48;;;;;;;;;;4998072;28;20532;-62
2023/09/04 05:29:43;;;;;;;14.48;10.85;;;;;;;;;;4985893;28;20430;-62
2023/09/04 05:32:10;;;;;;;15.23;10.75;;;;;;;;;;4996332;28;20424;-62
2023/09/04 05:34:39;;;;;;;11.90;10.45;;;;;;;;;;4986452;28;20418;-62
2023/09/04 05:37:08;;;;;;;13.35;10.27;;;;;;;;;;4995676;28;20427;-62
2023/09/04 05:39:35;;;;;;;13.77;10.15;;;;;;;;;;4985759;28;20425;-62
2023/09/04 05:42:02;;;;;;;12.65;9.25;;;;;;;;;;4993771;28;21083;-61
2023/09/04 05:44:29;;;;;;;11.88;10.05;;;;;;;;;;4986231;28;20434;-63
2023/09/04 05:46:56;;;;;;;11.52;9.25;;;;;;;;;;4988995;28;20423;-62
2023/09/04 05:49:23;;;;;;;10.82;9.00;;;;;;;;;;4986593;28;20418;-62
2023/09/04 05:51:50;;;;;;;11.35;8.98;;;;;;;;;;4990132;28;20430;-62
2023/09/04 05:54:19;;;;;;;11.82;9.45;;;;;;;;;;4990062;28;20416;-62
2023/09/04 05:56:46;;;;;;;11.55;9.50;;;;;;;;;;4989718;28;20422;-62
2023/09/04 05:59:13;;;;;;;10.30;9.18;;;;;;;;;;4988315;28;20982;-62
2023/09/04 06:01:40;;;;;;;11.05;8.90;;;;;;;;;;4992770;28;20471;-61
2023/09/04 06:04:07;;;;;;;13.27;8.80;;;;;;;;;;4986097;28;20493;-63
2023/09/04 06:06:34;;;;;;;11.25;8.73;;;;;;;;;;4994062;28;20513;-61
2023/09/04 06:09:03;;;;;;;12.77;9.10;;;;;;;;;;4984517;28;21362;-62
2023/09/04 06:11:31;;;;;;;10.77;8.35;;;;;;;;;;4993580;28;20422;-62
2023/09/04 06:13:58;;;;;;;10.25;8.15;;;;;;;;;;4982764;28;20458;-61
2023/09/04 06:16:25;;;;;;;11.27;7.78;;;;;;;;;;4988296;28;20532;-62
2023/09/04 06:18:52;;;;;;;8.85;7.63;;;;;;;;;;4991876;28;20422;-62
2023/09/04 06:21:19;;;;;;;9.43;6.82;;;;;;;;;;4985512;28;20863;-62
2023/09/04 06:23:46;;;;;;;10.80;7.32;;;;;;;;;;4988038;28;20866;-62
2023/09/04 06:26:13;;;;;;;15.82;7.70;;;;;;;;;;4991735;28;20432;-62
2023/09/04 06:28:42;;;;;;;20.95;9.18;;;;;;;;;;4987780;28;20477;-62
2023/09/04 06:31:09;;;;;;;28.45;8.43;;;;;;;;;;4990444;28;20426;-62
2023/09/04 06:33:37;;;;;;;23.17;7.43;;;;;;;;;;4987766;28;20416;-62
2023/09/04 06:36:05;;;;;;;13.65;6.55;;;;;;;;;;4987236;28;20475;-62
2023/09/04 06:38:32;;;;;;;8.50;6.18;;;;;;;;;;4986142;28;20422;-64
2023/09/04 06:40:59;;;;;;;12.05;6.30;;;;;;;;;;4981052;28;20428;-65
2023/09/04 06:43:26;;;;;;;9.85;6.18;;;;;;;;;;4988160;28;20750;-65
2023/09/04 06:45:54;;;;;;;7.88;5.55;;;;;;;;;;4985239;28;20427;-65
2023/09/04 06:48:22;;;;;;;7.57;5.72;;;;;;;;;;4992395;28;20532;-66
2023/09/04 06:50:50;;;;;;;7.60;5.40;;;;;;;;;;4989069;28;20422;-65
2023/09/04 06:53:17;;;;;;;9.68;5.15;;;;;;;;;;4995300;28;20474;-64
2023/09/04 06:55:44;;;;;;;17.80;5.18;;;;;;;;;;4989135;28;20415;-64
2023/09/04 06:58:11;;;;;;;13.07;4.95;;;;;;;;;;4988465;28;20420;-64
2023/09/04 07:00:39;;;;;;;8.23;4.50;;;;;;;;;;4987387;28;20456;-65
2023/09/04 07:03:07;;;;;;;9.50;4.70;;;;;;;;;;4988577;28;20434;-66
2023/09/04 07:05:34;;;;;;;6.13;3.75;;;;;;;;;;4988999;28;20437;-65
2023/09/04 07:08:04;;;;;;;5.97;4.13;;;;;;;;;;4985068;28;20923;-64
2023/09/04 07:10:31;;;;;;;5.47;3.85;;;;;;;;;;4986211;28;20418;-64
2023/09/04 07:12:58;;;;;;;5.43;4.00;;;;;;;;;;4985602;28;20426;-64
2023/09/04 07:15:25;;;;;;;3.90;3.40;;;;;;;;;;4988756;28;20414;-64
2023/09/04 07:17:52;;;;;;;6.05;3.70;;;;;;;;;;4994726;28;20473;-65
2023/09/04 07:20:21;;;;;;;5.50;3.53;;;;;;;;;;4993558;28;20440;-65
2023/09/04 07:22:48;;;;;;;4.78;3.35;;;;;;;;;;4993360;28;20430;-65
2023/09/04 07:25:15;;;;;;;5.97;3.40;;;;;;;;;;5001736;28;20915;-65
2023/09/04 07:27:42;;;;;;;4.37;3.40;;;;;;;;;;5002407;28;20934;-65
2023/09/04 07:30:09;;;;;;;4.78;3.42;;;;;;;;;;4993800;28;20421;-65
2023/09/04 07:32:36;;;;;;;4.30;3.47;;;;;;;;;;5009045;28;20421;-65
2023/09/04 07:35:04;;;;;;;5.22;3.38;;;;;;;;;;4990238;28;20431;-65
2023/09/04 07:37:32;;;;;;;5.38;3.28;;;;;;;;;;4986201;28;20468;-66
2023/09/04 07:39:59;;;;;;;4.00;3.10;;;;;;;;;;4988383;28;20764;-65
2023/09/04 07:42:26;;;;;;;4.75;3.22;;;;;;;;;;5008540;28;20423;-65
2023/09/04 07:44:53;;;;;;;6.33;3.27;;;;;;;;;;5002952;28;20514;-65
2023/09/04 07:47:20;;;;;;;3.30;3.00;;;;;;;;;;4991942;28;20420;-65
2023/09/04 07:49:48;;;;;;;6.10;3.22;;;;;;;;;;5001054;28;20790;-66
2023/09/04 07:52:15;;;;;;;6.10;3.20;;;;;;;;;;4991047;28;20874;-66
2023/09/04 07:54:44;;;;;;;3.40;3.10;;;;;;;;;;4991556;28;20415;-67
2023/09/04 07:57:11;;;;;;;4.90;3.30;;;;;;;;;;4982910;28;20551;-65
2023/09/04 07:59:39;;;;;;;3.10;2.80;;;;;;;;;;4992930;28;20865;-65
2023/09/04 08:02:06;;;;;;;4.00;2.97;;;;;;;;;;4993114;28;20421;-66
2023/09/04 08:04:33;;;;;;;4.78;2.88;;;;;;;;;;4989370;28;20455;-65
2023/09/04 08:07:00;;;;;;;4.63;2.63;;;;;;;;;;4990311;28;20804;-66
2023/09/04 08:09:27;;;;;;;5.28;2.65;;;;;;;;;;4993568;28;20422;-65
2023/09/04 08:11:55;;;;;;;2.88;2.50;;;;;;;;;;4984612;28;20423;-67
2023/09/04 08:14:22;;;;;;;4.93;2.75;;;;;;;;;;4990420;28;20422;-65
2023/09/04 08:16:49;;;;;;;4.65;2.78;;;;;;;;;;4986812;28;20929;-65
2023/09/04 08:19:16;;;;;;;4.22;2.70;;;;;;;;;;4999848;28;20419;-65
2023/09/04 08:21:43;;;;;;;4.50;2.72;;;;;;;;;;4997101;28;21116;-65
2023/09/04 08:24:10;;;;;;;4.03;2.60;;;;;;;;;;4997550;28;20428;-65
2023/09/04 08:26:37;;;;;;;2.92;2.38;;;;;;;;;;5003795;28;20434;-66
2023/09/04 08:29:06;;;;;;;4.68;2.50;;;;;;;;;;4991072;28;20418;-65
2023/09/04 08:31:33;;;;;;;3.30;2.50;;;;;;;;;;4998850;28;20421;-66
2023/09/04 08:34:00;;;;;;;2.92;2.10;;;;;;;;;;4999189;28;20419;-65
2023/09/04 08:36:27;;;;;;;3.78;2.40;;;;;;;;;;4995719;28;20414;-66
2023/09/04 08:38:54;;;;;;;4.68;2.42;;;;;;;;;;5003406;28;20915;-66
2023/09/04 08:41:22;;;;;;;2.70;2.03;;;;;;;;;;4991485;28;20419;-67
2023/09/04 08:43:50;;;;;;;2.70;2.00;;;;;;;;;;5008205;28;20431;-66
2023/09/04 08:46:20;;;;;;;3.50;2.42;;;;;;;;;;4986398;28;20443;-66
2023/09/04 08:48:47;;;;;;;2.85;2.08;;;;;;;;;;4990909;28;20416;-67
2023/09/04 08:51:16;;;;;;;3.92;2.35;;;;;;;;;;5000399;28;20422;-64
2023/09/04 08:53:43;;;;;;;3.38;2.35;;;;;;;;;;4994203;28;20411;-65
2023/09/04 08:56:12;;;;;;;3.22;2.50;;;;;;;;;;5007762;28;20753;-66
2023/09/04 08:58:39;;;;;;;3.50;2.50;;;;;;;;;;4998839;28;20852;-63
2023/09/04 09:01:06;;;;;;;3.53;2.50;;;;;;;;;;4997742;28;20414;-68
2023/09/04 09:03:35;;;;;;;4.32;2.63;;;;;;;;;;4998857;28;20427;-65
2023/09/04 09:06:02;;;;;;;4.38;2.78;;;;;;;;;;4986154;28;20442;-66
2023/09/04 09:08:31;;;;;;;5.55;2.72;;;;;;;;;;5000515;28;20423;-64
2023/09/04 09:11:00;;;;;;;3.67;2.88;;;;;;;;;;4985150;28;20430;-64
2023/09/04 09:13:27;;;;;;;3.80;2.60;;;;;;;;;;4987016;28;20427;-63
2023/09/04 09:15:55;;;;;;;3.08;2.50;;;;;;;;;;4988262;28;20427;-63
2023/09/04 09:18:42;;;;;;;3.88;2.50;;;;;;;;;;5000939;28;20413;-63
2023/09/04 09:21:24;;;;;;;2.78;2.35;;;;;;;;;;5005432;28;20838;-63
2023/09/04 09:24:05;;;;;;;3.55;2.30;;;;;;;;;;4994692;28;20421;-65
2023/09/04 09:26:33;;;;;;;3.40;2.58;;;;;;;;;;5010225;28;20437;-65
2023/09/04 09:29:02;;;;;;;3.47;2.20;;;;;;;;;;4993865;28;20418;-62
2023/09/04 09:31:29;;;;;;;2.67;2.15;;;;;;;;;;4999591;28;20423;-62
2023/09/04 09:33:56;;;;;;;4.35;2.60;;;;;;;;;;4992095;28;20410;-62
2023/09/04 09:36:26;;;;;;;3.58;2.20;;;;;;;;;;4991374;28;20409;-62
2023/09/04 09:38:55;;;;;;;2.85;2.30;;;;;;;;;;5001648;28;20414;-62
2023/09/04 09:41:23;;;;;;;3.85;2.30;;;;;;;;;;4998989;28;20428;-63
2023/09/04 09:43:50;;;;;;;2.88;2.08;;;;;;;;;;4994689;28;20431;-63
2023/09/04 09:46:17;;;;;;;3.08;2.30;;;;;;;;;;4986567;28;21026;-62
2023/09/04 09:48:44;;;;;;;4.45;2.38;;;;;;;;;;5004814;28;20471;-63
2023/09/04 09:51:12;;;;;;;3.72;2.35;;;;;;;;;;5007317;28;20421;-63
2023/09/04 09:53:45;;;;;;;6.88;2.83;;;;;;;;;;4994265;28;20418;-63
2023/09/04 09:56:13;;;;;;;4.80;2.72;;;;;;;;;;4990846;28;20507;-62
2023/09/04 09:58:41;;;;;;;4.30;2.60;;;;;;;;;;4987003;28;20434;-63
2023/09/04 10:01:09;;;;;;;8.18;3.00;;;;;;;;;;4974039;28;20525;-63
2023/09/04 10:03:36;;;;;;;5.72;2.78;;;;;;;;;;4971046;28;20883;-63
2023/09/04 10:06:05;;;;;;;5.88;2.88;;;;;;;;;;4983416;28;20514;-62
2023/09/04 10:08:34;;;;;;;6.80;3.00;;;;;;;;;;4989471;28;20427;-62
2023/09/04 10:11:04;;;;;;;3.38;2.50;;;;;;;;;;4985674;28;20501;-63
2023/09/04 10:13:34;;;;;;;5.60;2.57;;;;;;;;;;4994896;28;20415;-62
2023/09/04 10:16:03;;;;;;;4.13;3.00;;;;;;;;;;4986586;28;20908;-63
2023/09/04 10:18:31;;;;;;;6.10;2.57;;;;;;;;;;4986841;28;20477;-63
2023/09/04 10:20:59;;;;;;;3.87;2.33;;;;;;;;;;4987591;28;20461;-62
2023/09/04 10:23:30;;;;;;;5.75;2.45;;;;;;;;;;4984277;28;20473;-63
2023/09/04 10:26:03;;;;;;;4.28;2.40;;;;;;;;;;4990211;28;20430;-62
2023/09/04 10:28:35;;;;;;;3.70;2.30;;;;;;;;;;4984461;28;20842;-62
2023/09/04 10:31:02;;;;;;;4.75;2.50;;;;;;;;;;4990184;28;20429;-62
2023/09/04 10:33:29;;;;;;;3.35;2.35;;;;;;;;;;4989708;28;20911;-62
2023/09/04 10:35:57;;;;;;;3.80;2.23;;;;;;;;;;4995501;28;20411;-62
2023/09/04 10:38:24;;;;;;;2.55;2.00;;;;;;;;;;4988583;28;20827;-62
2023/09/04 10:40:52;;;;;;;5.28;2.30;;;;;;;;;;4988518;28;20414;-62
2023/09/04 10:43:19;;;;;;;3.65;1.90;;;;;;;;;;4987064;28;20454;-62
2023/09/04 10:46:01;;;;;;;2.85;2.00;;;;;;;;;;4987558;28;20450;-63
2023/09/04 10:48:42;;;;;;;4.50;2.10;;;;;;;;;;4987072;28;20421;-62
2023/09/04 10:51:28;;;;;;;2.85;2.20;;;;;;;;;;4989022;28;20855;-62
2023/09/04 10:53:55;;;;;;;4.07;2.00;;;;;;;;;;4985689;28;20422;-62
2023/09/04 10:56:23;;;;;;;2.83;2.00;;;;;;;;;;4989456;28;20883;-63
2023/09/04 10:58:59;;;;;;;3.97;2.10;;;;;;;;;;4992705;28;20433;-62
2023/09/04 11:01:33;;;;;;;4.30;2.50;;;;;;;;;;4993163;28;20425;-62
2023/09/04 11:04:03;;;;;;;3.10;2.05;;;;;;;;;;4994769;28;20414;-62
2023/09/04 11:06:30;;;;;;;4.22;2.08;;;;;;;;;;4989300;28;20462;-63
2023/09/04 11:08:57;;;;;;;3.58;2.20;;;;;;;;;;4994626;28;20440;-62
2023/09/04 11:11:27;;;;;;;5.90;2.10;;;;;;;;;;4988605;28;20767;-63
2023/09/04 11:14:01;;;;;;;2.38;2.00;;;;;;;;;;4984625;28;20447;-63
2023/09/04 11:16:31;;;;;;;3.78;2.00;;;;;;;;;;4992841;28;20414;-63
2023/09/04 11:19:03;;;;;;;3.80;2.10;;;;;;;;;;4994002;28;20425;-63
2023/09/04 11:21:34;;;;;;;3.80;2.20;;;;;;;;;;4998122;28;20837;-64
2023/09/04 11:24:01;;;;;;;2.45;1.80;;;;;;;;;;4991594;28;20425;-63
2023/09/04 11:26:28;;;;;;;3.22;1.88;;;;;;;;;;4998509;28;20440;-65
2023/09/04 11:28:57;;;;;;;3.33;1.70;;;;;;;;;;4998175;28;21038;-64
2023/09/04 11:31:26;;;;;;;4.35;2.03;;;;;;;;;;4993208;28;20444;-63
2023/09/04 11:33:53;;;;;;;3.05;1.90;;;;;;;;;;4983199;28;20426;-63
2023/09/04 11:36:22;;;;;;;2.45;1.77;;;;;;;;;;4995262;28;20418;-63
2023/09/04 11:38:49;;;;;;;3.15;1.77;;;;;;;;;;5004921;28;20904;-64
2023/09/04 11:41:16;;;;;;;4.80;2.00;;;;;;;;;;4996680;28;20920;-62
2023/09/04 11:43:44;;;;;;;3.42;1.85;;;;;;;;;;4996374;28;20416;-62
2023/09/04 11:46:11;;;;;;;2.03;1.60;;;;;;;;;;4994016;28;20922;-62
2023/09/04 11:48:39;;;;;;;4.32;1.92;;;;;;;;;;4998640;28;20452;-63
2023/09/04 11:51:09;;;;;;;2.55;1.80;;;;;;;;;;5006021;28;20430;-64
2023/09/04 11:53:37;;;;;;;2.63;1.70;;;;;;;;;;5010043;28;20770;-63
2023/09/04 11:56:05;;;;;;;2.50;1.63;;;;;;;;;;4987864;28;20418;-62
2023/09/04 11:58:33;;;;;;;2.70;1.93;;;;;;;;;;4993901;28;20418;-64
2023/09/04 12:01:00;;;;;;;2.35;1.80;;;;;;;;;;4993860;28;20418;-62
2023/09/04 12:03:27;;;;;;;2.45;1.90;;;;;;;;;;4999464;28;20773;-63
2023/09/04 12:05:54;;;;;;;2.65;1.90;;;;;;;;;;5000068;28;20423;-63
2023/09/04 12:08:21;;;;;;;2.83;1.77;;;;;;;;;;5012855;28;20459;-62
2023/09/04 12:10:50;;;;;;;2.75;1.60;;;;;;;;;;5012870;28;20761;-63
2023/09/04 12:13:18;;;;;;;2.90;1.60;;;;;;;;;;5009445;28;20421;-62
2023/09/04 12:15:45;;;;;;;4.30;1.80;;;;;;;;;;4996531;28;20418;-62
2023/09/04 12:18:13;;;;;;;2.85;2.10;;;;;;;;;;5002489;28;20426;-62
2023/09/04 12:20:41;;;;;;;4.20;1.90;;;;;;;;;;4995598;28;20491;-65
2023/09/04 12:23:08;;;;;;;4.55;1.73;;;;;;;;;;4993328;28;20505;-61
2023/09/04 12:25:36;;;;;;;2.42;1.70;;;;;;;;;;5011489;28;20413;-61
2023/09/04 12:28:06;;;;;;;2.80;1.80;;;;;;;;;;5012405;28;20429;-62
2023/09/04 12:30:35;;;;;;;2.33;1.70;;;;;;;;;;5012224;28;20420;-63
2023/09/04 12:33:02;;;;;;;2.25;1.60;;;;;;;;;;5011934;28;20417;-62
2023/09/04 12:35:31;;;;;;;4.15;1.85;;;;;;;;;;5012328;28;20484;-62
2023/09/04 12:37:58;;;;;;;3.35;2.00;;;;;;;;;;4991797;28;20457;-62
2023/09/04 12:40:25;;;;;;;3.30;2.05;;;;;;;;;;4995299;28;20417;-62
2023/09/04 12:42:52;;;;;;;2.42;2.00;;;;;;;;;;4996248;28;20503;-62
2023/09/04 12:45:21;;;;;;;7.20;2.17;;;;;;;;;;4995244;28;20426;-62
2023/09/04 12:47:48;;;;;;;2.03;1.60;;;;;;;;;;4993909;28;20437;-66
2023/09/04 12:50:15;;;;;;;2.20;1.92;;;;;;;;;;5009235;28;20493;-65
2023/09/04 12:52:46;;;;;;;3.40;2.08;;;;;;;;;;5011617;28;20420;-64
2023/09/04 12:55:14;;;;;;;3.53;2.10;;;;;;;;;;5002952;28;20889;-64
2023/09/04 12:57:41;;;;;;;2.42;1.90;;;;;;;;;;5005401;28;20443;-64
2023/09/04 13:00:09;;;;;;;3.85;2.25;;;;;;;;;;5011440;28;20416;-63
2023/09/04 13:02:37;;;;;;;2.67;2.13;;;;;;;;;;4983840;28;20426;-65
2023/09/04 13:05:05;;;;;;;3.83;2.20;;;;;;;;;;4993437;28;20426;-64
2023/09/04 13:07:33;;;;;;;3.00;2.03;;;;;;;;;;4985098;28;20521;-65
2023/09/04 13:10:00;;;;;;;3.72;2.03;;;;;;;;;;4994995;28;20495;-64
2023/09/04 13:12:27;;;;;;;3.33;2.05;;;;;;;;;;4991078;28;20415;-64
2023/09/04 13:14:54;;;;;;;3.33;1.90;;;;;;;;;;4986080;28;20430;-66
2023/09/04 13:17:21;;;;;;;2.25;1.80;;;;;;;;;;4984837;28;20425;-65
2023/09/04 13:19:50;;;;;;;3.47;1.92;;;;;;;;;;4998272;28;20452;-65
2023/09/04 13:22:17;;;;;;;2.88;1.60;;;;;;;;;;4989639;28;20425;-63
2023/09/04 13:24:44;;;;;;;2.58;1.95;;;;;;;;;;4992301;28;20461;-64
2023/09/04 13:27:11;;;;;;;3.10;1.90;;;;;;;;;;4985646;28;20436;-64
2023/09/04 13:29:38;;;;;;;6.30;1.98;;;;;;;;;;4986200;28;20433;-64
2023/09/04 13:32:06;;;;;;;3.10;2.00;;;;;;;;;;4988126;28;20414;-64
2023/09/04 13:34:33;;;;;;;3.63;1.98;;;;;;;;;;4987630;28;20861;-66
2023/09/04 13:37:01;;;;;;;4.57;1.90;;;;;;;;;;4990153;28;20777;-64
2023/09/04 13:39:29;;;;;;;3.90;2.03;;;;;;;;;;4987387;28;20422;-64
2023/09/04 13:41:56;;;;;;;2.28;2.00;;;;;;;;;;4982133;28;20523;-63
2023/09/04 13:44:24;;;;;;;4.30;2.08;;;;;;;;;;4986918;28;20428;-64
2023/09/04 13:46:51;;;;;;;3.47;1.90;;;;;;;;;;4981620;28;20924;-63
2023/09/04 13:49:18;;;;;;;3.35;1.90;;;;;;;;;;4989808;28;20429;-65
2023/09/04 13:51:45;;;;;;;3.22;2.10;;;;;;;;;;4985810;28;20496;-64
2023/09/04 13:54:14;;;;;;;2.60;1.77;;;;;;;;;;4985994;28;20414;-65
2023/09/04 13:56:43;;;;;;;4.18;2.08;;;;;;;;;;4989186;28;20430;-63
2023/09/04 13:59:10;;;;;;;3.20;2.08;;;;;;;;;;4985840;28;20473;-62
2023/09/04 14:01:38;;;;;;;2.70;1.90;;;;;;;;;;4987020;28;20477;-63
2023/09/04 14:04:05;;;;;;;3.53;2.00;;;;;;;;;;4987425;28;20424;-62
2023/09/04 14:06:32;;;;;;;4.38;2.10;;;;;;;;;;4987227;28;20419;-63
2023/09/04 14:08:59;;;;;;;3.05;2.05;;;;;;;;;;4994990;28;20414;-63
2023/09/04 14:11:27;;;;;;;3.20;2.03;;;;;;;;;;4988763;28;20786;-62
2023/09/04 14:13:55;;;;;;;3.20;2.00;;;;;;;;;;4994243;28;20421;-64
2023/09/04 14:16:22;;;;;;;5.43;2.13;;;;;;;;;;4984375;28;20423;-63
2023/09/04 14:18:50;;;;;;;2.45;1.83;;;;;;;;;;5002444;28;20424;-64
2023/09/04 14:21:17;;;;;;;2.90;2.10;;;;;;;;;;5002619;28;20798;-65
2023/09/04 14:23:45;;;;;;;3.40;1.97;;;;;;;;;;4987684;28;20425;-65
2023/09/04 14:26:12;;;;;;;3.23;2.10;;;;;;;;;;5000620;28;20927;-65
2023/09/04 14:28:40;;;;;;;2.97;2.60;;;;;;;;;;4987868;28;20434;-65
2023/09/04 14:31:13;;;;;;;4.38;1.92;;;;;;;;;;5003044;28;20416;-65
2023/09/04 14:33:40;;;;;;;3.40;2.00;;;;;;;;;;4992794;28;20469;-65
2023/09/04 14:36:07;;;;;;;7.05;2.50;;;;;;;;;;4988014;28;20435;-65
2023/09/04 14:38:37;;;;;;;3.05;2.20;;;;;;;;;;4998459;28;20870;-65